CheckWX is a tool to help pilots better visualize weather data.  It is not intended as a substitute for an official pre-flight weather briefing.

06:29:09 UTC

KCAE TAF
Columbia Metropolitan Airport
Columbia, South Carolina, USA
KCAE 070529Z 0706/0806 VRB03KT P6SM BKN080 FM071800 06008KT P6SM SCT080 FM072300 06005KT P6SM SKC

Dec-7@
06:00 UTC

Dec-7 @ 06:00 UTC

Dec-7@
18:00 UTC

Dec-7 @ 18:00 UTC

KCAE 070529Z 0706/0806 VRB03KT P6SM BKN080
Wind
  • Variable at 3 KTS
Cloud Levels
  • Broken at 8,000' AGL

Dec-7@
18:00 UTC

Dec-7 @ 18:00 UTC

Dec-7@
23:00 UTC

Dec-7 @ 23:00 UTC

FM071800 06008KT P6SM SCT080

From

From Standard forecast or significant change

Wind
  • 060° at 8 KTS
Cloud Levels
  • Scattered at 8,000' AGL

Dec-7@
23:00 UTC

Dec-7 @ 23:00 UTC

Dec-8@
06:00 UTC

Dec-8 @ 06:00 UTC

FM072300 06005KT P6SM SKC

From

From Standard forecast or significant change

Wind
  • 060° at 5 KTS
Cloud Levels
  • Clear skies